createdAt,value
2023-02-19T00:03:26.099Z,2.39
2023-02-19T00:08:31.298Z,2.46
2023-02-19T00:13:38.027Z,2.52
2023-02-19T00:18:41.064Z,2.68
2023-02-19T00:23:43.614Z,2.82
2023-02-19T00:28:47.410Z,2.86
2023-02-19T00:33:52.542Z,3.05
2023-02-19T00:38:55.098Z,3.03
2023-02-19T00:43:59.897Z,3.17
2023-02-19T00:49:03.143Z,3.13
2023-02-19T00:54:06.464Z,3.28
2023-02-19T00:59:09.016Z,3.25
2023-02-19T01:04:11.915Z,3.25
2023-02-19T01:09:14.844Z,3.31
2023-02-19T01:14:17.299Z,3.33
2023-02-19T01:19:20.602Z,3.38
2023-02-19T01:24:23.031Z,3.41
2023-02-19T01:29:25.475Z,3.45
2023-02-19T01:34:30.395Z,3.49
2023-02-19T01:39:32.911Z,3.47
2023-02-19T01:44:35.199Z,3.58
2023-02-19T01:49:49.009Z,3.69
2023-02-19T01:54:53.476Z,3.69
2023-02-19T02:00:02.434Z,3.78
2023-02-19T02:05:50.918Z,3.83
2023-02-19T02:10:54.256Z,3.80
2023-02-19T02:16:02.606Z,3.82
2023-02-19T02:21:36.080Z,3.90
2023-02-19T02:26:51.235Z,3.71
2023-02-19T02:32:08.102Z,3.59
2023-02-19T02:37:12.510Z,3.54
2023-02-19T02:42:30.323Z,3.51
2023-02-19T02:47:48.225Z,3.50
2023-02-19T02:53:10.849Z,3.56
2023-02-19T02:58:15.529Z,3.50
2023-02-19T03:03:22.576Z,3.42
2023-02-19T03:08:31.552Z,3.35
2023-02-19T03:13:57.600Z,3.35
2023-02-19T03:19:19.483Z,3.28
2023-02-19T03:24:50.230Z,3.19
2023-02-19T03:29:57.378Z,3.20
2023-02-19T03:35:10.233Z,3.20
2023-02-19T03:40:14.142Z,3.19
2023-02-19T03:45:57.184Z,3.31
2023-02-19T03:51:06.969Z,3.31
2023-02-19T03:56:31.228Z,3.43
2023-02-19T04:01:46.319Z,3.51
2023-02-19T04:06:55.100Z,3.48
2023-02-19T04:11:58.894Z,3.54
2023-02-19T04:17:05.634Z,3.63
2023-02-19T04:22:10.005Z,3.69
2023-02-19T04:27:12.786Z,3.68
2023-02-19T04:32:15.426Z,3.77
2023-02-19T04:37:17.878Z,3.88
2023-02-19T04:42:20.191Z,3.91
2023-02-19T04:47:22.714Z,4.08
2023-02-19T04:52:25.097Z,4.12
2023-02-19T04:57:27.809Z,4.11
2023-02-19T05:02:30.181Z,4.16
2023-02-19T05:07:32.797Z,4.45
2023-02-19T05:12:35.199Z,4.49
2023-02-19T05:17:38.092Z,4.51
2023-02-19T05:22:40.432Z,4.62
2023-02-19T05:27:42.913Z,4.66
2023-02-19T05:32:45.303Z,4.79
2023-02-19T05:37:47.732Z,4.94
2023-02-19T05:42:50.160Z,5.11
2023-02-19T05:47:52.540Z,5.07
2023-02-19T05:52:54.904Z,5.23
2023-02-19T05:57:57.241Z,5.34
2023-02-19T06:02:59.772Z,5.40
2023-02-19T06:08:02.178Z,5.60
2023-02-19T06:13:04.600Z,5.64
2023-02-19T06:18:07.012Z,5.65
2023-02-19T06:23:09.440Z,5.84
2023-02-19T06:28:11.794Z,5.97
2023-02-19T06:33:15.686Z,6.06
2023-02-19T06:38:18.147Z,5.91
2023-02-19T06:43:20.533Z,6.07
2023-02-19T06:48:22.960Z,6.34
2023-02-19T06:53:25.861Z,6.61
2023-02-19T06:58:28.611Z,6.69
2023-02-19T07:03:31.121Z,6.68
2023-02-19T07:08:33.653Z,6.81
2023-02-19T07:13:36.074Z,6.91
2023-02-19T07:18:39.735Z,6.96
2023-02-19T07:23:43.168Z,6.88
2023-02-19T07:28:47.054Z,6.92
2023-02-19T07:33:50.406Z,6.94
2023-02-19T07:38:57.328Z,7.19
2023-02-19T07:43:59.787Z,7.40
2023-02-19T07:49:02.186Z,7.78
2023-02-19T07:54:04.652Z,7.56
2023-02-19T07:59:07.058Z,7.66
2023-02-19T08:04:10.738Z,7.72
2023-02-19T08:09:13.126Z,7.66
2023-02-19T08:14:15.605Z,7.50
2023-02-19T08:19:18.113Z,7.58
2023-02-19T08:24:20.527Z,7.60
2023-02-19T08:29:23.083Z,7.81
2023-02-19T08:34:25.558Z,7.82
2023-02-19T08:39:28.024Z,7.49
2023-02-19T08:44:30.401Z,7.67
2023-02-19T08:49:32.824Z,7.87
2023-02-19T08:54:37.226Z,7.88
2023-02-19T08:59:39.705Z,7.81
2023-02-19T09:04:42.143Z,7.99
2023-02-19T09:09:44.612Z,8.13
2023-02-19T09:14:47.260Z,8.02
2023-02-19T09:19:50.885Z,7.94
2023-02-19T09:24:53.506Z,8.01
2023-02-19T09:29:55.998Z,7.83
2023-02-19T09:34:58.473Z,7.97
2023-02-19T09:40:00.895Z,8.13
2023-02-19T09:45:05.402Z,8.11
2023-02-19T09:50:10.376Z,7.87
2023-02-19T09:55:36.631Z,8.22
2023-02-19T10:00:40.274Z,8.22
2023-02-19T10:05:43.278Z,8.18
2023-02-19T10:10:45.821Z,7.83
2023-02-19T10:15:52.195Z,7.45
2023-02-19T10:20:56.288Z,7.78
2023-02-19T10:26:00.474Z,8.12
2023-02-19T10:31:07.700Z,8.32
2023-02-19T10:36:41.966Z,10.25
2023-02-19T10:41:44.551Z,11.77
2023-02-19T10:46:50.680Z,10.80
2023-02-19T10:51:55.841Z,10.01
2023-02-19T10:57:21.392Z,9.56
2023-02-19T11:02:24.503Z,9.18
2023-02-19T11:07:26.918Z,8.98
2023-02-19T11:12:33.764Z,8.64
2023-02-19T11:17:36.830Z,8.02
2023-02-19T11:22:42.339Z,8.02
2023-02-19T11:28:05.151Z,7.84
2023-02-19T11:33:16.734Z,7.66
2023-02-19T11:38:21.102Z,7.53
2023-02-19T11:43:50.126Z,7.63
2023-02-19T11:48:56.428Z,7.27
2023-02-19T11:54:05.168Z,7.34
2023-02-19T11:59:36.662Z,7.54
2023-02-19T12:04:48.016Z,7.39
2023-02-19T12:10:28.898Z,7.40
2023-02-19T12:15:50.112Z,7.15
2023-02-19T12:21:26.317Z,7.11
2023-02-19T12:26:56.590Z,7.07
2023-02-19T12:32:27.363Z,6.96
2023-02-19T12:37:45.525Z,7.25
2023-02-19T12:43:20.586Z,7.18
2023-02-19T12:48:53.701Z,7.04
2023-02-19T12:54:06.502Z,7.02
2023-02-19T12:59:36.986Z,6.83
2023-02-19T13:04:42.261Z,6.84
2023-02-19T13:09:52.273Z,6.91
2023-02-19T13:15:00.156Z,6.81
2023-02-19T13:20:14.344Z,6.74
2023-02-19T13:25:19.520Z,6.88
2023-02-19T13:30:21.817Z,6.79
2023-02-19T13:35:42.190Z,6.76
2023-02-19T13:40:56.085Z,6.58
2023-02-19T13:46:03.006Z,6.51
2023-02-19T13:51:26.452Z,6.49
2023-02-19T13:56:31.869Z,6.40
2023-02-19T14:01:56.195Z,6.27
2023-02-19T14:07:04.981Z,6.11
2023-02-19T14:12:15.455Z,5.95
2023-02-19T14:17:29.059Z,5.88
2023-02-19T14:22:51.603Z,5.83
2023-02-19T14:28:16.069Z,5.64
2023-02-19T14:33:22.785Z,5.62
2023-02-19T14:38:27.731Z,5.54
2023-02-19T14:43:31.665Z,5.46
2023-02-19T14:48:39.983Z,5.25
2023-02-19T14:53:45.172Z,5.11
2023-02-19T14:59:05.782Z,5.07
2023-02-19T15:04:25.945Z,4.96
2023-02-19T15:09:35.717Z,4.97
2023-02-19T15:14:40.466Z,4.88
2023-02-19T15:19:44.375Z,4.84
2023-02-19T15:24:48.673Z,4.73
2023-02-19T15:29:53.857Z,4.78
2023-02-19T15:34:59.165Z,4.83
2023-02-19T15:40:07.897Z,4.86
2023-02-19T15:45:16.070Z,4.73
2023-02-19T15:50:31.893Z,4.54
2023-02-19T15:55:40.283Z,4.43
2023-02-19T16:00:52.129Z,4.38
2023-02-19T16:06:11.672Z,4.29
2023-02-19T16:11:23.373Z,4.19
2023-02-19T16:16:31.524Z,4.02
2023-02-19T16:21:34.308Z,3.90
2023-02-19T16:26:44.759Z,3.79
2023-02-19T16:31:50.988Z,3.68
2023-02-19T16:36:53.496Z,3.59
2023-02-19T16:42:12.862Z,3.52
2023-02-19T16:47:21.045Z,3.44
2023-02-19T16:52:23.710Z,3.37
2023-02-19T16:57:26.183Z,3.34
2023-02-19T17:02:28.622Z,3.27
2023-02-19T17:07:31.052Z,3.25
2023-02-19T17:12:33.494Z,3.10
2023-02-19T17:17:36.156Z,3.03
2023-02-19T17:22:38.967Z,2.97
2023-02-19T17:27:41.653Z,2.97
2023-02-19T17:32:44.759Z,2.96
2023-02-19T17:37:47.272Z,2.94
2023-02-19T17:42:50.291Z,2.95
2023-02-19T17:47:53.417Z,2.99
2023-02-19T17:52:56.005Z,3.05
2023-02-19T17:57:58.454Z,3.07
2023-02-19T18:03:01.030Z,3.10
2023-02-19T18:08:03.768Z,3.15
2023-02-19T18:13:06.399Z,3.14
2023-02-19T18:18:10.124Z,3.14
2023-02-19T18:23:12.615Z,3.20
2023-02-19T18:28:15.696Z,3.23
2023-02-19T18:33:18.288Z,3.16
2023-02-19T18:38:21.251Z,3.11
2023-02-19T18:43:23.851Z,2.98
2023-02-19T18:48:26.251Z,2.87
2023-02-19T18:53:30.421Z,2.78
2023-02-19T18:58:33.715Z,2.67
2023-02-19T19:03:36.180Z,2.72
2023-02-19T19:08:38.681Z,2.70
2023-02-19T19:13:41.253Z,2.69
2023-02-19T19:18:43.624Z,2.65
2023-02-19T19:23:46.582Z,2.54
2023-02-19T19:28:48.977Z,2.52
2023-02-19T19:33:52.200Z,2.55
2023-02-19T19:38:54.663Z,2.49
2023-02-19T19:43:57.566Z,2.42
2023-02-19T19:49:00.117Z,2.47
2023-02-19T19:54:04.447Z,2.40
2023-02-19T19:59:06.899Z,2.31
2023-02-19T20:04:09.269Z,2.27
2023-02-19T20:09:11.973Z,2.30
2023-02-19T20:14:15.264Z,2.24
2023-02-19T20:19:19.861Z,2.29
2023-02-19T20:24:29.090Z,2.18
2023-02-19T20:29:33.730Z,2.10
2023-02-19T20:34:36.780Z,2.07
2023-02-19T20:39:39.295Z,2.03
2023-02-19T20:44:42.930Z,2.01
2023-02-19T20:49:46.860Z,2.06
2023-02-19T20:54:49.271Z,2.06
2023-02-19T20:59:51.770Z,2.09
2023-02-19T21:04:54.239Z,2.12
2023-02-19T21:09:56.674Z,2.27
2023-02-19T21:14:59.076Z,2.32
2023-02-19T21:20:01.482Z,2.47
2023-02-19T21:25:05.610Z,2.47
2023-02-19T21:30:08.616Z,2.45
2023-02-19T21:35:11.272Z,2.22
2023-02-19T21:40:13.964Z,2.32
2023-02-19T21:45:16.479Z,2.33
2023-02-19T21:50:20.300Z,2.22
2023-02-19T21:55:22.661Z,2.23
2023-02-19T22:00:25.189Z,2.32
2023-02-19T22:05:27.618Z,2.26
2023-02-19T22:10:30.301Z,2.24
2023-02-19T22:15:32.645Z,2.37
2023-02-19T22:20:37.520Z,2.27
2023-02-19T22:25:39.909Z,2.21
2023-02-19T22:30:43.209Z,1.90
2023-02-19T22:35:45.602Z,2.01
2023-02-19T22:40:47.975Z,1.86
2023-02-19T22:45:50.386Z,1.89
2023-02-19T22:50:52.965Z,2.11
2023-02-19T22:55:55.466Z,2.35
2023-02-19T23:00:58.003Z,2.47
2023-02-19T23:06:04.050Z,2.67
2023-02-19T23:11:06.477Z,2.63
2023-02-19T23:16:08.909Z,2.75
2023-02-19T23:21:11.568Z,2.74
2023-02-19T23:26:16.089Z,2.87
2023-02-19T23:31:19.081Z,2.86
2023-02-19T23:36:24.088Z,2.83
2023-02-19T23:41:26.694Z,2.68
2023-02-19T23:46:29.341Z,2.54
2023-02-19T23:51:31.778Z,2.38
2023-02-19T23:56:34.834Z,2.30
